Time;durP1;ratioP1;P1;durP2;ratioP2;P2;SDS_P1;SDS_P2;PMS_P1;PMS_P2;Temp;Humidity;BMP_temperature;BMP_pressure;BME280_temperature;BME280_humidity;BME280_pressure;Samples;Min_cycle;Max_cycle;Signal;HPM_P1;HPM_P2
2021/11/23 00:00:42;0.00;0.00;0.62;0.00;0.00;0.62;2.40;1.33;;;22.40;27.50;;;;;;2241768;62;20426;-63
2021/11/23 00:03:27;0.00;0.00;0.62;0.00;0.00;0.62;2.00;1.30;;;22.40;27.40;;;;;;2241916;62;20422;-63
2021/11/23 00:06:12;0.00;0.00;0.62;0.00;0.00;0.62;2.60;1.63;;;22.30;27.40;;;;;;2241160;62;20567;-64
2021/11/23 00:08:57;0.00;0.00;0.62;0.00;0.00;0.62;2.60;1.33;;;22.30;27.40;;;;;;2244324;61;20407;-63
2021/11/23 00:11:44;0.00;0.00;0.62;0.00;0.00;0.62;2.93;1.60;;;22.30;27.40;;;;;;2241768;62;20747;-62
2021/11/23 00:14:29;0.00;0.00;0.62;0.00;0.00;0.62;2.30;1.43;;;22.30;27.40;;;;;;2241837;62;20378;-64
2021/11/23 00:17:16;0.00;0.00;0.62;0.00;0.00;0.62;2.50;1.80;;;22.20;27.40;;;;;;2241837;62;20402;-64
2021/11/23 00:20:01;0.00;0.00;0.62;0.00;0.00;0.62;2.80;1.50;;;22.20;27.30;;;;;;2241349;62;20723;-63
2021/11/23 00:22:46;0.00;0.00;0.62;0.00;0.00;0.62;2.50;1.50;;;22.10;27.20;;;;;;2241676;62;20367;-64
2021/11/23 00:25:32;0.00;0.00;0.62;0.00;0.00;0.62;3.17;1.70;;;22.10;27.10;;;;;;2241915;62;20778;-62
2021/11/23 00:28:16;0.00;0.00;0.62;0.00;0.00;0.62;2.97;1.37;;;22.00;27.00;;;;;;2241000;62;20725;-62
2021/11/23 00:31:01;0.00;0.00;0.62;0.00;0.00;0.62;3.50;1.23;;;22.00;27.00;;;;;;2242005;62;20422;-63
2021/11/23 00:33:47;0.00;0.00;0.62;0.00;0.00;0.62;2.90;1.70;;;21.90;27.00;;;;;;2241669;62;20366;-64
2021/11/23 00:36:32;0.00;0.00;0.62;0.00;0.00;0.62;2.17;1.43;;;21.90;27.00;;;;;;2241596;62;20390;-64
2021/11/23 00:39:17;0.00;0.00;0.62;0.00;0.00;0.62;2.43;1.20;;;21.90;27.10;;;;;;2241773;62;20358;-63
2021/11/23 00:42:03;0.00;0.00;0.62;0.00;0.00;0.62;3.93;1.77;;;21.80;27.00;;;;;;2241288;61;20639;-63
2021/11/23 00:44:48;0.00;0.00;0.62;0.00;0.00;0.62;1.97;1.23;;;21.80;27.00;;;;;;2241831;62;20366;-64
2021/11/23 00:47:32;0.00;0.00;0.62;0.00;0.00;0.62;2.03;1.33;;;21.70;27.00;;;;;;2241245;62;20583;-63
2021/11/23 00:50:19;0.00;0.00;0.62;0.00;0.00;0.62;3.20;1.50;;;21.70;27.00;;;;;;2240885;62;20401;-62
2021/11/23 00:53:05;0.00;0.00;0.62;0.00;0.00;0.62;3.63;1.60;;;21.70;27.00;;;;;;2241969;62;20459;-62
2021/11/23 00:55:50;0.00;0.00;0.62;0.00;0.00;0.62;1.90;1.40;;;21.60;26.90;;;;;;2241694;62;20387;-64
2021/11/23 00:58:36;0.00;0.00;0.62;0.00;0.00;0.62;2.20;1.13;;;21.60;26.90;;;;;;2241144;62;20394;-62
2021/11/23 01:01:21;0.00;0.00;0.62;0.00;0.00;0.62;3.20;1.47;;;21.60;27.00;;;;;;2241598;62;20389;-63
2021/11/23 01:04:06;0.00;0.00;0.62;0.00;0.00;0.62;2.03;1.43;;;21.50;27.00;;;;;;2241306;62;20586;-62
2021/11/23 01:06:52;0.00;0.00;0.62;0.00;0.00;0.62;2.90;1.50;;;21.50;27.10;;;;;;2241416;62;20343;-64
2021/11/23 01:09:37;0.00;0.00;0.62;0.00;0.00;0.62;2.10;1.40;;;21.50;27.20;;;;;;2241620;62;20399;-64
2021/11/23 01:12:23;0.00;0.00;0.62;0.00;0.00;0.62;3.10;1.20;;;21.50;27.20;;;;;;2241235;62;20482;-64
2021/11/23 01:15:10;0.00;0.00;0.62;0.00;0.00;0.62;2.10;1.37;;;21.50;27.20;;;;;;2241965;62;20381;-64
2021/11/23 01:17:55;0.00;0.00;0.62;0.00;0.00;0.62;2.90;1.23;;;21.40;27.20;;;;;;2241715;62;20445;-65
2021/11/23 01:20:40;0.00;0.00;0.62;0.00;0.00;0.62;3.87;1.70;;;21.40;27.70;;;;;;2240906;62;20463;-66
2021/11/23 01:23:27;0.00;0.00;0.62;0.00;0.00;0.62;4.73;1.80;;;21.40;27.20;;;;;;2241384;62;20366;-64
2021/11/23 01:26:12;0.00;0.00;0.62;0.00;0.00;0.62;2.60;1.20;;;21.50;27.30;;;;;;2241260;62;20719;-65
2021/11/23 01:28:57;0.00;0.00;0.62;0.00;0.00;0.62;2.03;1.17;;;21.40;27.20;;;;;;2243738;61;20734;-64
2021/11/23 01:31:43;0.00;0.00;0.62;0.00;0.00;0.62;3.00;1.30;;;21.50;27.30;;;;;;2241464;62;20766;-64
2021/11/23 01:34:28;0.00;0.00;0.62;0.00;0.00;0.62;2.80;1.43;;;21.50;27.30;;;;;;2241235;62;20619;-64
2021/11/23 01:37:13;0.00;0.00;0.62;0.00;0.00;0.62;2.20;1.37;;;21.40;27.20;;;;;;2241875;62;20390;-63
2021/11/23 01:40:00;0.00;0.00;0.62;0.00;0.00;0.62;2.57;1.53;;;21.50;27.30;;;;;;2241547;62;20386;-63
2021/11/23 01:42:46;0.00;0.00;0.62;0.00;0.00;0.62;2.60;1.10;;;21.40;27.20;;;;;;2241061;62;20394;-63
2021/11/23 01:45:32;0.00;0.00;0.62;0.00;0.00;0.62;2.30;1.20;;;21.40;27.20;;;;;;2241571;62;20358;-64
2021/11/23 01:48:17;0.00;0.00;0.62;0.00;0.00;0.62;2.10;1.27;;;21.40;27.20;;;;;;2241090;62;20643;-63
2021/11/23 01:51:03;0.00;0.00;0.62;0.00;0.00;0.62;3.30;1.83;;;21.40;27.70;;;;;;2241373;62;20382;-64
2021/11/23 01:53:49;0.00;0.00;0.62;0.00;0.00;0.62;2.17;1.43;;;21.40;27.20;;;;;;2241576;62;20367;-64
2021/11/23 01:56:35;0.00;0.00;0.62;0.00;0.00;0.62;2.00;1.20;;;21.40;27.10;;;;;;2241316;62;20810;-64
2021/11/23 01:59:20;0.00;0.00;0.62;0.00;0.00;0.62;2.80;1.40;;;21.40;27.70;;;;;;2241673;62;20370;-64
2021/11/23 02:02:05;0.00;0.00;0.62;0.00;0.00;0.62;3.27;1.43;;;21.40;27.10;;;;;;2241442;62;20358;-64
2021/11/23 02:04:50;0.00;0.00;0.62;0.00;0.00;0.62;3.17;1.53;;;21.30;27.00;;;;;;2240863;62;20409;-64
2021/11/23 02:07:35;0.00;0.00;0.62;0.00;0.00;0.62;3.20;1.50;;;21.30;26.90;;;;;;2241597;62;20366;-64
2021/11/23 02:10:20;0.00;0.00;0.62;0.00;0.00;0.62;2.20;1.37;;;21.30;26.90;;;;;;2241192;62;20410;-62
2021/11/23 02:13:07;0.00;0.00;0.62;0.00;0.00;0.62;1.90;1.30;;;21.30;26.90;;;;;;2241008;62;20370;-64
2021/11/23 02:15:54;0.00;0.00;0.62;0.00;0.00;0.62;5.10;1.50;;;21.20;26.90;;;;;;2241457;62;20362;-64
2021/11/23 02:18:39;0.00;0.00;0.62;0.00;0.00;0.62;2.33;1.40;;;21.20;26.90;;;;;;2241065;62;20409;-63
2021/11/23 02:21:25;0.00;0.00;0.62;0.00;0.00;0.62;1.97;1.37;;;21.20;26.90;;;;;;2241531;62;20386;-64
2021/11/23 02:24:10;0.00;0.00;0.62;0.00;0.00;0.62;3.10;1.90;;;21.20;27.00;;;;;;2241471;62;20371;-63
2021/11/23 02:26:56;0.00;0.00;0.62;0.00;0.00;0.62;2.53;1.87;;;21.10;26.90;;;;;;2240599;62;20395;-64
2021/11/23 02:29:41;0.00;0.00;0.62;0.00;0.00;0.62;2.70;2.03;;;21.10;26.90;;;;;;2241632;62;20787;-64
2021/11/23 02:32:26;0.00;0.00;0.62;0.00;0.00;0.62;3.80;1.47;;;21.10;26.90;;;;;;2242117;62;20575;-64
2021/11/23 02:35:12;0.00;0.00;0.62;0.00;0.00;0.62;2.60;1.07;;;21.10;27.00;;;;;;2242176;62;20406;-63
2021/11/23 02:37:59;0.00;0.00;0.62;0.00;0.00;0.62;3.20;1.60;;;21.10;27.00;;;;;;2241769;62;20621;-64
2021/11/23 02:40:44;0.00;0.00;0.62;0.00;0.00;0.62;3.40;1.83;;;21.10;27.00;;;;;;2241744;62;20393;-65
2021/11/23 02:43:29;0.00;0.00;0.62;0.00;0.00;0.62;2.97;1.60;;;21.10;27.10;;;;;;2242205;62;20390;-64
2021/11/23 02:46:14;0.00;0.00;0.62;0.00;0.00;0.62;2.03;1.43;;;21.00;27.10;;;;;;2242231;62;20406;-66
2021/11/23 02:48:59;0.00;0.00;0.62;0.00;0.00;0.62;1.93;1.33;;;21.00;27.20;;;;;;2241293;62;20591;-64
2021/11/23 02:51:43;0.00;0.00;0.62;0.00;0.00;0.62;1.77;1.30;;;21.00;27.30;;;;;;2242397;62;20449;-63
2021/11/23 02:54:29;0.00;0.00;0.62;0.00;0.00;0.62;3.20;1.40;;;21.00;27.30;;;;;;2242229;62;20366;-63
2021/11/23 02:57:15;0.00;0.00;0.62;0.00;0.00;0.62;2.80;1.57;;;21.00;27.30;;;;;;2242067;62;20394;-63
2021/11/23 03:00:01;0.00;0.00;0.62;0.00;0.00;0.62;3.10;1.73;;;21.00;27.30;;;;;;2241989;62;20418;-63
2021/11/23 03:02:46;0.00;0.00;0.62;0.00;0.00;0.62;2.83;1.43;;;21.00;27.30;;;;;;2241762;62;20386;-63
2021/11/23 03:05:31;0.00;0.00;0.62;0.00;0.00;0.62;3.27;1.20;;;20.90;27.20;;;;;;2242125;62;20403;-63
2021/11/23 03:08:17;0.00;0.00;0.62;0.00;0.00;0.62;2.80;1.57;;;20.90;27.30;;;;;;2242009;62;20366;-63
2021/11/23 03:11:03;0.00;0.00;0.62;0.00;0.00;0.62;3.40;1.70;;;20.90;27.20;;;;;;2241312;62;20386;-63
2021/11/23 03:13:48;0.00;0.00;0.62;0.00;0.00;0.62;3.50;2.10;;;20.90;27.30;;;;;;2242415;62;20365;-64
2021/11/23 03:16:33;0.00;0.00;0.62;0.00;0.00;0.62;2.90;1.70;;;20.80;27.20;;;;;;2242101;62;20385;-64
2021/11/23 03:19:18;0.00;0.00;0.62;0.00;0.00;0.62;4.30;2.13;;;20.90;27.30;;;;;;2241708;62;20386;-64
2021/11/23 03:22:03;0.00;0.00;0.62;0.00;0.00;0.62;3.10;1.83;;;20.80;27.20;;;;;;2241538;62;20411;-64
2021/11/23 03:24:48;0.00;0.00;0.62;0.00;0.00;0.62;2.43;1.43;;;20.80;27.20;;;;;;2241731;62;20367;-64
2021/11/23 03:27:35;0.00;0.00;0.62;0.00;0.00;0.62;2.30;1.40;;;20.80;27.20;;;;;;2241908;62;20395;-63
2021/11/23 03:30:24;0.00;0.00;0.62;0.00;0.00;0.62;2.77;1.70;;;20.70;27.10;;;;;;2241921;62;20430;-64
2021/11/23 03:33:10;0.00;0.00;0.62;0.00;0.00;0.62;4.13;1.90;;;20.70;27.10;;;;;;2241303;62;20359;-64
2021/11/23 03:35:55;0.00;0.00;0.62;0.00;0.00;0.62;2.10;1.50;;;20.70;27.10;;;;;;2242392;62;20457;-64
2021/11/23 03:38:39;0.00;0.00;0.62;0.00;0.00;0.62;5.13;1.77;;;20.70;27.10;;;;;;2241920;62;20431;-64
2021/11/23 03:41:24;0.00;0.00;0.62;0.00;0.00;0.62;4.37;1.40;;;20.60;27.00;;;;;;2241664;62;20418;-64
2021/11/23 03:44:12;0.00;0.00;0.62;0.00;0.00;0.62;2.40;1.70;;;20.60;27.00;;;;;;2242061;62;20410;-64
2021/11/23 03:46:57;0.00;0.00;0.62;0.00;0.00;0.62;2.50;1.90;;;20.60;27.10;;;;;;2241496;62;20359;-64
2021/11/23 03:49:44;0.00;0.00;0.62;0.00;0.00;0.62;2.50;1.47;;;20.60;27.20;;;;;;2241820;62;20390;-64
2021/11/23 03:52:29;0.00;0.00;0.62;0.00;0.00;0.62;5.63;2.20;;;20.50;27.20;;;;;;2241945;62;20592;-64
2021/11/23 03:55:17;0.00;0.00;0.62;0.00;0.00;0.62;2.53;1.90;;;20.50;27.30;;;;;;2241387;62;20725;-64
2021/11/23 03:58:03;0.00;0.00;0.62;0.00;0.00;0.62;3.17;1.60;;;20.50;27.30;;;;;;2242323;62;20394;-64
2021/11/23 04:00:49;0.00;0.00;0.62;0.00;0.00;0.62;3.40;2.57;;;20.50;27.30;;;;;;2241788;62;20458;-63
2021/11/23 04:03:35;0.00;0.00;0.62;0.00;0.00;0.62;4.13;1.87;;;20.50;27.30;;;;;;2241588;62;20366;-64
2021/11/23 04:06:20;0.00;0.00;0.62;0.00;0.00;0.62;2.43;1.43;;;20.40;27.30;;;;;;2241557;62;20411;-64
2021/11/23 04:09:06;0.00;0.00;0.62;0.00;0.00;0.62;3.60;1.90;;;20.40;27.40;;;;;;2241503;62;20373;-64
2021/11/23 04:11:51;0.00;0.00;0.62;0.00;0.00;0.62;3.93;1.80;;;20.40;27.40;;;;;;2241450;62;20765;-64
2021/11/23 04:14:37;0.00;0.00;0.62;0.00;0.00;0.62;4.03;2.53;;;20.40;27.50;;;;;;2241938;62;20370;-63
2021/11/23 04:17:23;0.00;0.00;0.62;0.00;0.00;0.62;3.80;1.90;;;20.30;27.40;;;;;;2241468;62;20398;-64
2021/11/23 04:20:09;0.00;0.00;0.62;0.00;0.00;0.62;3.63;1.90;;;20.30;27.50;;;;;;2242147;62;20386;-64
2021/11/23 04:22:55;0.00;0.00;0.62;0.00;0.00;0.62;2.50;1.60;;;20.30;27.50;;;;;;2241845;62;20367;-64
2021/11/23 04:25:40;0.00;0.00;0.62;0.00;0.00;0.62;3.90;1.73;;;20.30;27.60;;;;;;2241616;62;20407;-63
2021/11/23 04:28:25;0.00;0.00;0.62;0.00;0.00;0.62;3.50;1.73;;;20.30;27.60;;;;;;2241777;62;20358;-64
2021/11/23 04:31:10;0.00;0.00;0.62;0.00;0.00;0.62;2.07;1.60;;;20.20;27.60;;;;;;2241030;62;20382;-64
2021/11/23 04:33:57;0.00;0.00;0.62;0.00;0.00;0.62;2.53;1.50;;;20.20;27.60;;;;;;2241534;62;20418;-64
2021/11/23 04:36:42;0.00;0.00;0.62;0.00;0.00;0.62;2.07;1.37;;;20.20;27.60;;;;;;2241773;62;20462;-64
2021/11/23 04:39:27;0.00;0.00;0.62;0.00;0.00;0.62;3.30;1.47;;;20.20;27.70;;;;;;2241429;62;20359;-64
2021/11/23 04:42:12;0.00;0.00;0.62;0.00;0.00;0.62;2.80;1.73;;;20.20;27.70;;;;;;2242070;62;20447;-64
2021/11/23 04:44:57;0.00;0.00;0.62;0.00;0.00;0.62;4.30;2.07;;;20.20;28.20;;;;;;2241867;62;20403;-63
2021/11/23 04:47:42;0.00;0.00;0.62;0.00;0.00;0.62;4.53;1.93;;;20.20;27.70;;;;;;2241155;62;20362;-64
2021/11/23 04:50:29;0.00;0.00;0.62;0.00;0.00;0.62;1.77;1.50;;;20.20;27.80;;;;;;2241648;62;20430;-63
2021/11/23 04:53:14;0.00;0.00;0.62;0.00;0.00;0.62;2.77;1.70;;;20.20;27.80;;;;;;2241489;62;20366;-63
2021/11/23 04:55:58;0.00;0.00;0.62;0.00;0.00;0.62;4.50;2.00;;;20.20;27.80;;;;;;2241839;62;20581;-63
2021/11/23 04:58:43;0.00;0.00;0.62;0.00;0.00;0.62;2.63;1.60;;;20.20;27.80;;;;;;2241741;62;20366;-64
2021/11/23 05:01:28;0.00;0.00;0.62;0.00;0.00;0.62;3.20;2.07;;;20.20;27.90;;;;;;2241462;62;20382;-64
2021/11/23 05:04:12;0.00;0.00;0.62;0.00;0.00;0.62;4.33;1.70;;;20.10;27.90;;;;;;2241792;62;20414;-63
2021/11/23 05:06:58;0.00;0.00;0.62;0.00;0.00;0.62;1.80;1.40;;;20.10;27.90;;;;;;2241708;62;20362;-64
2021/11/23 05:09:43;0.00;0.00;0.62;0.00;0.00;0.62;2.60;1.43;;;20.10;27.90;;;;;;2240972;62;20378;-63
2021/11/23 05:12:28;0.00;0.00;0.62;0.00;0.00;0.62;2.47;1.47;;;20.10;27.90;;;;;;2241361;62;20583;-64
2021/11/23 05:15:13;0.00;0.00;0.62;0.00;0.00;0.62;5.10;1.57;;;20.10;28.00;;;;;;2241382;62;20367;-64
2021/11/23 05:17:58;0.00;0.00;0.62;0.00;0.00;0.62;1.80;1.40;;;20.10;28.00;;;;;;2241206;62;20421;-65
2021/11/23 05:20:43;0.00;0.00;0.62;0.00;0.00;0.62;2.83;1.50;;;20.10;28.10;;;;;;2240195;62;20431;-63
2021/11/23 05:23:29;0.00;0.00;0.62;0.00;0.00;0.62;2.90;1.63;;;20.10;28.10;;;;;;2240778;62;20367;-65
2021/11/23 05:26:14;0.00;0.00;0.62;0.00;0.00;0.62;1.70;1.23;;;20.10;28.20;;;;;;2241501;62;20414;-62
2021/11/23 05:28:59;0.00;0.00;0.62;0.00;0.00;0.62;1.70;1.30;;;20.10;28.10;;;;;;2241703;62;20366;-68
2021/11/23 05:31:44;0.00;0.00;0.62;0.00;0.00;0.62;4.13;1.77;;;20.10;28.20;;;;;;2240793;62;20734;-62
2021/11/23 05:34:28;0.00;0.00;0.62;0.00;0.00;0.62;3.50;1.70;;;20.10;28.20;;;;;;2241628;62;20407;-63
2021/11/23 05:37:14;0.00;0.00;0.62;0.00;0.00;0.62;2.23;1.63;;;20.10;28.20;;;;;;2243682;61;20397;-67
2021/11/23 05:40:01;0.00;0.00;0.62;0.00;0.00;0.62;3.03;1.63;;;20.10;28.20;;;;;;2240935;62;20390;-67
2021/11/23 05:42:46;0.00;0.00;0.62;0.00;0.00;0.62;3.27;1.40;;;20.10;28.20;;;;;;2241233;61;20394;-67
2021/11/23 05:45:31;0.00;0.00;0.62;0.00;0.00;0.62;2.50;1.80;;;20.10;28.30;;;;;;2241140;62;20597;-68
2021/11/23 05:48:15;0.00;0.00;0.62;0.00;0.00;0.62;2.20;2.00;;;20.10;28.30;;;;;;2241432;62;20427;-62
2021/11/23 05:51:03;0.00;0.00;0.62;0.00;0.00;0.62;1.70;1.50;;;20.10;28.30;;;;;;2241764;62;20669;-62
2021/11/23 05:53:49;0.00;0.00;0.62;0.00;0.00;0.62;2.90;1.30;;;20.10;28.30;;;;;;2240703;62;20366;-70
2021/11/23 05:56:35;0.00;0.00;0.62;0.00;0.00;0.62;3.27;1.30;;;20.10;28.30;;;;;;2241471;62;20366;-63
2021/11/23 05:59:20;0.00;0.00;0.62;0.00;0.00;0.62;1.90;1.30;;;20.10;28.30;;;;;;2241660;62;20386;-63
2021/11/23 06:02:06;0.00;0.00;0.62;0.00;0.00;0.62;1.80;1.57;;;20.10;28.40;;;;;;2241175;62;20390;-64
2021/11/23 06:04:51;0.00;0.00;0.62;0.00;0.00;0.62;2.03;1.37;;;20.20;28.40;;;;;;2241669;62;20385;-66
2021/11/23 06:07:36;0.00;0.00;0.62;0.00;0.00;0.62;2.73;1.40;;;20.20;28.30;;;;;;2240957;62;20629;-67
2021/11/23 06:10:21;0.00;0.00;0.62;0.00;0.00;0.62;1.50;1.13;;;20.20;28.40;;;;;;2241429;62;20378;-63
2021/11/23 06:13:08;0.00;0.00;0.62;0.00;0.00;0.62;2.37;1.80;;;20.20;28.90;;;;;;2241587;62;20737;-64
2021/11/23 06:15:53;0.00;0.00;0.62;0.00;0.00;0.62;2.13;1.67;;;20.20;28.40;;;;;;2241024;62;20588;-62
2021/11/23 06:18:37;0.00;0.00;0.62;0.00;0.00;0.62;2.10;1.60;;;20.20;28.40;;;;;;2241959;62;20474;-61
2021/11/23 06:21:23;0.00;0.00;0.62;0.00;0.00;0.62;4.43;1.40;;;20.20;28.40;;;;;;2241926;62;20426;-62
2021/11/23 06:24:09;0.00;0.00;0.62;0.00;0.00;0.62;2.27;1.77;;;20.30;28.50;;;;;;2243704;61;20370;-62
2021/11/23 06:26:54;0.00;0.00;0.62;0.00;0.00;0.62;2.00;1.40;;;20.30;28.40;;;;;;2241675;62;20367;-62
2021/11/23 06:29:40;0.00;0.00;0.62;0.00;0.00;0.62;3.10;1.30;;;20.30;28.40;;;;;;2240928;62;20405;-65
2021/11/23 06:32:25;0.00;0.00;0.62;0.00;0.00;0.62;2.33;1.93;;;20.30;28.40;;;;;;2241447;62;20719;-65
2021/11/23 06:35:11;0.00;0.00;0.62;0.00;0.00;0.62;1.80;1.30;;;20.30;28.40;;;;;;2241591;62;20398;-62
2021/11/23 06:37:56;0.00;0.00;0.62;0.00;0.00;0.62;2.40;1.77;;;20.30;28.40;;;;;;2241051;62;20410;-64
2021/11/23 06:40:42;0.00;0.00;0.62;0.00;0.00;0.62;2.60;2.20;;;20.30;28.40;;;;;;2241791;62;20423;-65
2021/11/23 06:43:27;0.00;0.00;0.62;0.00;0.00;0.62;2.93;2.20;;;20.40;28.40;;;;;;2241754;62;20363;-63
2021/11/23 06:46:13;0.00;0.00;0.62;0.00;0.00;0.62;2.23;1.77;;;20.40;28.40;;;;;;2241111;62;20440;-62
2021/11/23 06:49:00;0.00;0.00;0.62;0.00;0.00;0.62;2.73;2.13;;;20.40;28.40;;;;;;2241423;62;20442;-65
2021/11/23 06:51:45;0.00;0.00;0.62;0.00;0.00;0.62;7.40;1.47;;;20.40;28.40;;;;;;2240978;62;20450;-62
2021/11/23 06:54:30;0.00;0.00;0.62;0.00;0.00;0.62;1.97;1.30;;;20.40;28.40;;;;;;2241399;62;20414;-63
2021/11/23 06:57:16;0.00;0.00;0.62;0.00;0.00;0.62;1.70;1.30;;;20.40;28.30;;;;;;2240953;62;20397;-64
2021/11/23 07:00:01;0.00;0.00;0.62;0.00;0.00;0.62;2.00;1.37;;;20.50;28.40;;;;;;2241006;62;20382;-64
2021/11/23 07:02:47;0.00;0.00;0.62;0.00;0.00;0.62;1.73;1.10;;;20.50;28.40;;;;;;2241989;62;20398;-65
2021/11/23 07:05:32;0.00;0.00;0.62;0.00;0.00;0.62;2.13;1.10;;;20.50;28.40;;;;;;2241625;62;20362;-64
2021/11/23 07:08:17;0.00;0.00;0.62;0.00;0.00;0.62;1.50;0.90;;;20.50;28.40;;;;;;2240788;62;20638;-62
2021/11/23 07:11:05;0.00;0.00;0.62;0.00;0.00;0.62;1.67;1.33;;;20.50;28.40;;;;;;2241404;62;20422;-63
2021/11/23 07:13:50;0.00;0.00;0.62;0.00;0.00;0.62;1.70;1.13;;;20.50;28.40;;;;;;2241074;62;20426;-66
2021/11/23 07:16:36;0.00;0.00;0.62;0.00;0.00;0.62;1.50;1.13;;;20.60;28.40;;;;;;2241410;62;20363;-63
2021/11/23 07:19:22;0.00;0.00;0.62;0.00;0.00;0.62;1.50;1.00;;;20.60;28.40;;;;;;2241928;62;20762;-61
2021/11/23 07:22:07;0.00;0.00;0.62;0.00;0.00;0.62;1.27;0.83;;;20.60;28.40;;;;;;2241739;62;20722;-62
2021/11/23 07:24:52;0.00;0.00;0.62;0.00;0.00;0.62;2.13;1.10;;;20.60;28.40;;;;;;2242482;62;20371;-63
2021/11/23 07:27:37;0.00;0.00;0.62;0.00;0.00;0.62;4.40;1.10;;;20.70;28.50;;;;;;2241994;62;20362;-62
2021/11/23 07:30:22;0.00;0.00;0.62;0.00;0.00;0.62;1.50;0.90;;;20.70;28.50;;;;;;2241224;62;20426;-64
2021/11/23 07:33:07;0.00;0.00;0.62;0.00;0.00;0.62;2.17;1.10;;;20.70;28.50;;;;;;2241887;62;20604;-62
2021/11/23 07:35:53;0.00;0.00;0.62;0.00;0.00;0.62;1.67;0.90;;;20.70;28.40;;;;;;2242040;62;20444;-62
2021/11/23 07:38:38;0.00;0.00;0.62;0.00;0.00;0.62;1.50;0.90;;;20.70;28.40;;;;;;2241848;62;20398;-65
2021/11/23 07:41:23;0.00;0.00;0.62;0.00;0.00;0.62;1.70;1.10;;;20.70;28.40;;;;;;2241892;62;20430;-61
2021/11/23 07:44:10;0.00;0.00;0.62;0.00;0.00;0.62;2.43;0.90;;;20.80;28.50;;;;;;2241676;62;20783;-61
2021/11/23 07:46:55;0.00;0.00;0.62;0.00;0.00;0.62;1.53;0.97;;;20.80;28.50;;;;;;2241861;62;20722;-61
2021/11/23 07:49:40;0.00;0.00;0.62;0.00;0.00;0.62;1.60;0.90;;;20.80;28.40;;;;;;2241939;62;20370;-67
2021/11/23 07:52:26;0.00;0.00;0.62;0.00;0.00;0.62;1.80;0.90;;;20.80;28.40;;;;;;2242136;61;20414;-68
2021/11/23 07:55:11;0.00;0.00;0.62;0.00;0.00;0.62;1.70;1.00;;;20.80;28.40;;;;;;2245898;61;20717;-64
2021/11/23 07:57:59;0.00;0.00;0.62;0.00;0.00;0.62;2.33;0.80;;;20.80;28.40;;;;;;2245797;61;20805;-67
2021/11/23 08:00:43;0.00;0.00;0.62;0.00;0.00;0.62;1.40;0.90;;;20.80;28.40;;;;;;2245529;61;20793;-61
2021/11/23 08:03:28;0.00;0.00;0.62;0.00;0.00;0.62;1.53;1.00;;;20.90;28.50;;;;;;2245470;61;20426;-65
2021/11/23 08:06:13;0.00;0.00;0.62;0.00;0.00;0.62;2.10;0.90;;;20.80;28.50;;;;;;2245156;61;20384;-64
2021/11/23 08:08:59;0.00;0.00;0.62;0.00;0.00;0.62;1.50;0.90;;;20.80;28.50;;;;;;2245268;61;20417;-66
2021/11/23 08:11:44;0.00;0.00;0.62;0.00;0.00;0.62;1.60;1.10;;;20.80;28.50;;;;;;2245373;61;20405;-62
2021/11/23 08:14:29;0.00;0.00;0.62;0.00;0.00;0.62;1.67;1.03;;;20.90;28.60;;;;;;2244844;61;20686;-65
2021/11/23 08:17:14;0.00;0.00;0.62;0.00;0.00;0.62;1.40;0.93;;;20.90;28.50;;;;;;2244919;61;20397;-65
2021/11/23 08:20:00;0.00;0.00;0.62;0.00;0.00;0.62;2.13;1.20;;;20.90;28.50;;;;;;2245443;61;20401;-69
2021/11/23 08:22:48;0.00;0.00;0.62;0.00;0.00;0.62;1.80;1.23;;;20.90;28.50;;;;;;2244851;61;20365;-63
2021/11/23 08:25:34;0.00;0.00;0.62;0.00;0.00;0.62;1.63;1.27;;;20.90;28.50;;;;;;2245473;61;20370;-66
2021/11/23 08:28:19;0.00;0.00;0.62;0.00;0.00;0.62;1.50;1.00;;;21.00;28.60;;;;;;2244826;61;20471;-64
2021/11/23 08:31:05;0.00;0.00;0.62;0.00;0.00;0.62;1.90;1.10;;;21.00;28.60;;;;;;2245363;61;20451;-67
2021/11/23 08:33:50;0.00;0.00;0.62;0.00;0.00;0.62;1.90;1.13;;;21.00;28.60;;;;;;2245440;61;20365;-71
2021/11/23 08:36:35;0.00;0.00;0.62;0.00;0.00;0.62;2.20;1.40;;;21.00;28.60;;;;;;2244348;61;20393;-68
2021/11/23 08:39:23;0.00;0.00;0.62;0.00;0.00;0.62;1.87;1.30;;;21.00;28.60;;;;;;2245502;61;20750;-65
2021/11/23 08:42:10;0.00;0.00;0.62;0.00;0.00;0.62;2.40;1.33;;;21.00;28.60;;;;;;2245465;61;20489;-68
2021/11/23 08:44:55;0.00;0.00;0.62;0.00;0.00;0.62;2.53;1.60;;;21.00;28.70;;;;;;2245062;61;20369;-66
2021/11/23 08:47:40;0.00;0.00;0.62;0.00;0.00;0.62;3.80;1.80;;;21.00;28.60;;;;;;2245481;61;20730;-69
2021/11/23 08:50:27;0.00;0.00;0.62;0.00;0.00;0.62;2.43;1.57;;;21.00;28.60;;;;;;2245138;61;20382;-67
2021/11/23 08:53:12;0.00;0.00;0.62;0.00;0.00;0.62;2.60;1.57;;;21.00;28.60;;;;;;2245411;61;20407;-67
2021/11/23 08:55:58;0.00;0.00;0.62;0.00;0.00;0.62;3.00;1.57;;;21.00;28.60;;;;;;2245618;61;20365;-69
2021/11/23 08:58:47;0.00;0.00;0.62;0.00;0.00;0.62;2.60;1.50;;;21.10;28.60;;;;;;2244652;61;20385;-66
2021/11/23 09:01:32;0.00;0.00;0.62;0.00;0.00;0.62;2.13;1.43;;;21.10;28.60;;;;;;2245778;61;20393;-66
2021/11/23 09:04:17;0.00;0.00;0.62;0.00;0.00;0.62;2.37;1.70;;;21.10;28.60;;;;;;2245994;61;20362;-69
2021/11/23 09:07:03;0.00;0.00;0.62;0.00;0.00;0.62;2.47;1.50;;;21.10;28.60;;;;;;2244995;61;20362;-69
2021/11/23 09:09:48;0.00;0.00;0.62;0.00;0.00;0.62;2.57;1.60;;;21.10;28.60;;;;;;2245531;61;20624;-66
2021/11/23 09:12:33;0.00;0.00;0.62;0.00;0.00;0.62;3.80;1.57;;;21.10;28.50;;;;;;2245019;61;20358;-66
2021/11/23 09:15:19;0.00;0.00;0.62;0.00;0.00;0.62;2.63;1.77;;;21.10;28.50;;;;;;2245393;61;20441;-68
2021/11/23 09:18:06;0.00;0.00;0.62;0.00;0.00;0.62;1.73;1.27;;;21.10;28.50;;;;;;2245523;61;20397;-69
2021/11/23 09:20:51;0.00;0.00;0.62;0.00;0.00;0.62;2.10;1.40;;;21.10;28.50;;;;;;2244773;61;20389;-68
2021/11/23 09:23:35;0.00;0.00;0.62;0.00;0.00;0.62;1.97;1.20;;;21.10;28.50;;;;;;2245897;61;20410;-67
2021/11/23 09:26:21;0.00;0.00;0.62;0.00;0.00;0.62;2.30;1.43;;;21.10;28.50;;;;;;2245405;61;20585;-68
2021/11/23 09:29:06;0.00;0.00;0.62;0.00;0.00;0.62;1.70;1.30;;;21.20;28.60;;;;;;2245057;61;20438;-69
2021/11/23 09:31:53;0.00;0.00;0.62;0.00;0.00;0.62;2.30;1.47;;;21.20;28.50;;;;;;2245417;61;20789;-69
2021/11/23 09:34:38;0.00;0.00;0.62;0.00;0.00;0.62;3.03;1.80;;;21.20;28.50;;;;;;2244660;61;20801;-68
2021/11/23 09:37:23;0.00;0.00;0.62;0.00;0.00;0.62;1.97;1.43;;;21.20;28.50;;;;;;2245368;61;20401;-68
2021/11/23 09:40:09;0.00;0.00;0.62;0.00;0.00;0.62;1.80;1.20;;;21.20;28.50;;;;;;2245277;61;20386;-68
2021/11/23 09:42:55;0.00;0.00;0.62;0.00;0.00;0.62;1.70;1.10;;;21.20;28.50;;;;;;2244999;61;20667;-67
2021/11/23 09:45:41;0.00;0.00;0.62;0.00;0.00;0.62;2.20;1.40;;;21.20;28.50;;;;;;2245375;61;20502;-65
2021/11/23 09:48:29;0.00;0.00;0.62;0.00;0.00;0.62;2.47;1.47;;;21.20;28.50;;;;;;2245606;61;20730;-66
2021/11/23 09:51:16;0.00;0.00;0.62;0.00;0.00;0.62;1.70;1.17;;;21.20;28.50;;;;;;2244937;61;20618;-66
2021/11/23 09:54:05;0.00;0.00;0.62;0.00;0.00;0.62;2.13;1.50;;;21.20;28.50;;;;;;2245518;61;20572;-66
2021/11/23 09:56:54;0.00;0.00;0.62;0.00;0.00;0.62;2.00;1.37;;;21.20;28.50;;;;;;2244976;61;20822;-67
2021/11/23 09:59:39;0.00;0.00;0.62;0.00;0.00;0.62;1.93;1.47;;;21.20;28.50;;;;;;2245323;61;20369;-67
2021/11/23 10:02:26;0.00;0.00;0.62;0.00;0.00;0.62;1.90;1.20;;;21.20;28.50;;;;;;2245281;61;20358;-69
2021/11/23 10:05:15;0.00;0.00;0.62;0.00;0.00;0.62;2.23;1.47;;;21.20;28.50;;;;;;2245007;61;20369;-67
2021/11/23 10:08:07;0.00;0.00;0.62;0.00;0.00;0.62;2.73;1.50;;;21.20;28.50;;;;;;2245906;61;20474;-67
2021/11/23 10:10:54;0.00;0.00;0.62;0.00;0.00;0.62;2.90;1.47;;;21.20;28.50;;;;;;2245600;61;20420;-67
2021/11/23 10:13:44;0.00;0.00;0.62;0.00;0.00;0.62;1.40;0.83;;;21.20;28.40;;;;;;2245135;61;20429;-66
2021/11/23 10:16:39;0.00;0.00;0.62;0.00;0.00;0.62;2.33;1.30;;;21.30;28.50;;;;;;2245355;61;20438;-67
2021/11/23 10:19:36;0.00;0.00;0.62;0.00;0.00;0.62;2.50;1.33;;;21.30;28.50;;;;;;2244977;61;20413;-68
2021/11/23 10:22:31;0.00;0.00;0.62;0.00;0.00;0.62;1.83;1.23;;;21.30;28.50;;;;;;2245397;61;20730;-66
2021/11/23 10:25:16;0.00;0.00;0.62;0.00;0.00;0.62;3.30;1.50;;;21.30;28.50;;;;;;2245484;61;20572;-66
2021/11/23 10:28:01;0.00;0.00;0.62;0.00;0.00;0.62;1.77;1.20;;;21.30;28.50;;;;;;2244347;61;20365;-67
2021/11/23 10:30:48;0.00;0.00;0.62;0.00;0.00;0.62;1.70;1.27;;;21.30;28.50;;;;;;2244766;61;20469;-66
2021/11/23 10:33:37;0.00;0.00;0.62;0.00;0.00;0.62;1.70;1.10;;;21.30;28.50;;;;;;2245013;61;20357;-66
2021/11/23 10:36:22;0.00;0.00;0.62;0.00;0.00;0.62;2.10;1.30;;;21.30;28.50;;;;;;2245391;61;20598;-68
2021/11/23 10:39:13;0.00;0.00;0.62;0.00;0.00;0.62;1.60;1.13;;;21.30;28.50;;;;;;2245285;61;20357;-65
2021/11/23 10:42:01;0.00;0.00;0.62;0.00;0.00;0.62;2.37;1.53;;;21.30;28.50;;;;;;2244899;61;20600;-67
2021/11/23 10:44:56;0.00;0.00;0.62;0.00;0.00;0.62;1.57;0.87;;;21.30;28.40;;;;;;2245782;61;20382;-68
2021/11/23 10:47:44;0.00;0.00;0.62;0.00;0.00;0.62;2.27;1.40;;;21.30;28.40;;;;;;2245610;61;20364;-66
2021/11/23 10:50:28;0.00;0.00;0.62;0.00;0.00;0.62;2.13;1.30;;;21.30;28.50;;;;;;2244977;61;20428;-67
2021/11/23 10:53:15;0.00;0.00;0.62;0.00;0.00;0.62;1.60;1.00;;;21.30;28.40;;;;;;2245293;61;20581;-67